TimeCDT,TemperatureF,Dew PointF,Humidity,Sea Level PressureIn,VisibilityMPH,Wind Direction,Wind SpeedMPH,Gust SpeedMPH,PrecipitationIn,Events,Conditions,WindDirDegrees,DateUTC
12:12 AM,73.8,58.1,58,29.77,10.0,SSE,11.5,19.6,N/A,,Clear,150,2013-09-28 05:12:00
12:33 AM,73.4,58.1,59,29.77,10.0,SSE,11.5,19.6,N/A,,Clear,150,2013-09-28 05:33:00
12:52 AM,73.0,58.1,59,29.76,10.0,SE,12.7,21.9,N/A,,Clear,140,2013-09-28 05:52:00
1:13 AM,72.7,57.9,60,29.75,10.0,SSE,13.8,20.7,N/A,,Clear,150,2013-09-28 06:13:00
1:33 AM,72.5,57.7,60,29.75,10.0,SSE,12.7,21.9,N/A,,Clear,150,2013-09-28 06:33:00
1:52 AM,72.1,57.6,60,29.76,10.0,SSE,12.7,19.6,N/A,,Clear,150,2013-09-28 06:52:00
2:13 AM,71.6,57.6,61,29.75,10.0,SSE,12.7,17.3,N/A,,Clear,150,2013-09-28 07:13:00
2:32 AM,71.1,57.6,62,29.74,10.0,SE,9.2,16.1,N/A,,Clear,140,2013-09-28 07:32:00
2:52 AM,70.9,57.6,63,29.74,10.0,SSE,11.5,18.4,N/A,,Scattered Clouds,150,2013-09-28 07:52:00
3:13 AM,71.1,57.7,63,29.73,10.0,SSE,11.5,20.7,N/A,,Mostly Cloudy,150,2013-09-28 08:13:00
3:33 AM,70.9,57.7,63,29.72,10.0,SE,13.8,19.6,N/A,,Overcast,140,2013-09-28 08:33:00
3:53 AM,71.1,57.9,63,29.72,10.0,SE,12.7,21.9,N/A,,Overcast,140,2013-09-28 08:53:00
4:12 AM,71.1,57.9,63,29.72,10.0,SE,10.4,20.7,N/A,,Overcast,140,2013-09-28 09:12:00
4:33 AM,70.3,58.1,65,29.70,10.0,SSE,13.8,24.2,N/A,,Scattered Clouds,150,2013-09-28 09:33:00
4:53 AM,70.0,58.1,66,29.69,10.0,SE,12.7,24.2,N/A,,Scattered Clouds,140,2013-09-28 09:53:00
5:13 AM,70.3,58.1,65,29.69,10.0,SSE,11.5,19.6,N/A,,Mostly Cloudy,150,2013-09-28 10:13:00
5:32 AM,70.3,58.1,65,29.67,10.0,SSE,15.0,23.0,N/A,,Mostly Cloudy,150,2013-09-28 10:32:00
5:52 AM,70.3,58.1,65,29.66,10.0,SSE,13.8,23.0,N/A,,Scattered Clouds,150,2013-09-28 10:52:00
6:13 AM,70.9,57.9,63,29.66,10.0,SSE,10.4,20.7,N/A,,Mostly Cloudy,150,2013-09-28 11:13:00
6:32 AM,71.2,57.7,62,29.66,10.0,SSE,12.7,19.6,N/A,,Overcast,150,2013-09-28 11:32:00
6:53 AM,71.1,57.7,63,29.66,10.0,SSE,11.5,20.7,N/A,,Overcast,160,2013-09-28 11:53:00
7:12 AM,70.3,57.9,65,29.66,10.0,SSE,13.8,26.5,N/A,,Overcast,160,2013-09-28 12:12:00
7:33 AM,69.6,58.1,67,29.66,10.0,SSE,11.5,21.9,N/A,,Overcast,150,2013-09-28 12:33:00
7:53 AM,69.3,58.3,68,29.66,10.0,SSE,8.1,20.7,N/A,Rain,Light Rain,160,2013-09-28 12:53:00
8:13 AM,68.2,59.5,74,29.65,7.0,SSE,8.1,17.3,N/A,Rain,Rain,160,2013-09-28 13:13:00
8:33 AM,66.6,60.3,80,29.65,7.0,SSE,9.2,17.3,0.01,Rain,Light Rain,160,2013-09-28 13:33:00
8:52 AM,66.2,60.6,82,29.64,5.0,SSE,9.2,-,0.02,Rain,Rain,150,2013-09-28 13:52:00
9:12 AM,66.0,60.8,83,29.63,7.0,SSE,9.2,-,0.01,Rain,Light Rain,160,2013-09-28 14:12:00
9:33 AM,66.2,61.7,85,29.64,5.0,SSE,9.2,16.1,0.02,Rain,Light Rain,160,2013-09-28 14:33:00
9:53 AM,66.2,61.7,85,29.64,7.0,SSE,9.2,17.3,0.02,Rain,Light Rain,160,2013-09-28 14:53:00
10:12 AM,63.7,57.9,81,29.66,3.0,West,17.3,26.5,0.05,Rain,Heavy Rain,260,2013-09-28 15:12:00
10:33 AM,56.8,52.5,85,29.69,4.0,West,13.8,26.5,0.06,,Light Drizzle,260,2013-09-28 15:33:00
10:52 AM,55.4,51.4,87,29.70,4.0,West,13.8,23.0,0.06,,Overcast,260,2013-09-28 15:52:00
11:13 AM,54.5,50.4,86,29.73,3.0,West,17.3,23.0,0.01,,Heavy Drizzle,260,2013-09-28 16:13:00
11:33 AM,54.5,50.4,86,29.75,2.5,West,16.1,20.7,0.03,,Drizzle,260,2013-09-28 16:33:00
11:53 AM,54.5,50.9,88,29.75,4.0,West,13.8,21.9,0.03,,Drizzle,260,2013-09-28 16:53:00
12:13 PM,54.7,50.7,86,29.75,4.0,West,13.8,19.6,N/A,,Light Drizzle,270,2013-09-28 17:13:00
12:32 PM,55.4,50.7,84,29.76,10.0,West,12.7,21.9,N/A,,Overcast,260,2013-09-28 17:32:00
12:53 PM,56.5,51.6,84,29.76,10.0,West,12.7,23.0,N/A,,Light Drizzle,270,2013-09-28 17:53:00
1:13 PM,57.4,50.9,79,29.76,10.0,West,15.0,21.9,N/A,,Mostly Cloudy,270,2013-09-28 18:13:00
1:33 PM,57.7,50.4,76,29.77,10.0,West,10.4,21.9,N/A,,Mostly Cloudy,260,2013-09-28 18:33:00
1:52 PM,58.5,48.7,70,29.78,10.0,West,15.0,23.0,N/A,,Mostly Cloudy,270,2013-09-28 18:52:00
2:13 PM,59.0,49.1,70,29.79,10.0,West,12.7,19.6,N/A,,Mostly Cloudy,260,2013-09-28 19:13:00
2:32 PM,59.4,47.7,65,29.80,10.0,West,13.8,28.8,N/A,,Overcast,270,2013-09-28 19:32:00
2:53 PM,59.0,48.2,67,29.81,10.0,West,11.5,23.0,N/A,,Overcast,260,2013-09-28 19:53:00
3:13 PM,59.0,47.8,66,29.82,10.0,WSW,8.1,18.4,N/A,,Overcast,250,2013-09-28 20:13:00
3:33 PM,59.0,46.4,63,29.82,10.0,West,11.5,18.4,N/A,,Overcast,270,2013-09-28 20:33:00
3:53 PM,59.0,45.7,61,29.83,10.0,West,13.8,24.2,N/A,,Overcast,260,2013-09-28 20:53:00
4:12 PM,59.5,45.5,60,29.84,10.0,West,16.1,21.9,N/A,,Overcast,260,2013-09-28 21:12:00
4:33 PM,59.4,45.0,59,29.84,10.0,West,11.5,19.6,N/A,,Overcast,270,2013-09-28 21:33:00
4:53 PM,59.9,45.1,58,29.85,10.0,West,13.8,17.3,N/A,,Overcast,270,2013-09-28 21:53:00
5:12 PM,59.5,43.7,56,29.85,10.0,West,13.8,18.4,N/A,,Overcast,280,2013-09-28 22:12:00
5:33 PM,59.4,43.9,57,29.86,10.0,West,11.5,16.1,N/A,,Scattered Clouds,270,2013-09-28 22:33:00
5:53 PM,60.3,43.0,53,29.87,10.0,West,9.2,16.1,N/A,,Scattered Clouds,260,2013-09-28 22:53:00
6:12 PM,60.1,42.8,53,29.88,10.0,West,9.2,-,N/A,,Scattered Clouds,260,2013-09-28 23:12:00
6:33 PM,59.4,42.6,54,29.89,10.0,West,11.5,18.4,N/A,,Scattered Clouds,280,2013-09-28 23:33:00
6:53 PM,58.3,41.9,54,29.90,10.0,West,6.9,-,N/A,,Clear,260,2013-09-28 23:53:00
7:13 PM,57.2,41.7,56,29.91,10.0,WSW,4.6,-,N/A,,Clear,250,2013-09-29 00:13:00
7:33 PM,55.9,41.9,59,29.92,10.0,WSW,3.5,-,N/A,,Clear,240,2013-09-29 00:33:00
7:53 PM,53.6,42.8,67,29.92,10.0,Calm,Calm,-,N/A,,Clear,0,2013-09-29 00:53:00
8:12 PM,52.0,42.6,70,29.93,10.0,Calm,Calm,-,N/A,,Clear,0,2013-09-29 01:12:00
8:33 PM,51.4,42.8,72,29.93,10.0,Calm,Calm,-,N/A,,Clear,0,2013-09-29 01:33:00
8:52 PM,50.0,43.0,77,29.93,10.0,South,3.5,-,N/A,,Clear,190,2013-09-29 01:52:00
9:13 PM,49.3,42.1,76,29.93,10.0,South,3.5,-,N/A,,Clear,190,2013-09-29 02:13:00
9:33 PM,49.3,42.3,77,29.93,10.0,South,3.5,-,N/A,,Clear,190,2013-09-29 02:33:00
9:53 PM,50.0,42.3,75,29.94,10.0,South,3.5,-,N/A,,Clear,190,2013-09-29 02:53:00
10:13 PM,50.0,41.9,74,29.94,10.0,South,4.6,-,N/A,,Clear,190,2013-09-29 03:13:00
10:33 PM,50.4,41.9,73,29.94,10.0,South,5.8,-,N/A,,Clear,190,2013-09-29 03:33:00
10:52 PM,50.4,41.9,73,29.94,10.0,South,4.6,-,N/A,,Clear,180,2013-09-29 03:52:00
11:13 PM,50.2,41.4,72,29.94,10.0,South,5.8,-,N/A,,Clear,180,2013-09-29 04:13:00
11:33 PM,49.5,41.4,74,29.94,10.0,South,5.8,-,N/A,,Clear,180,2013-09-29 04:33:00
11:52 PM,49.5,41.2,73,29.94,10.0,South,5.8,-,N/A,,Scattered Clouds,180,2013-09-29 04:52:00